createdAt,value
2023-04-18T00:00:43.894Z,97447.97
2023-04-18T00:03:16.126Z,97441.28
2023-04-18T00:05:48.180Z,97455.16
2023-04-18T00:08:17.313Z,97450.06
2023-04-18T00:10:47.531Z,97442.13
2023-04-18T00:13:19.087Z,97442.47
2023-04-18T00:15:48.012Z,97435.50
2023-04-18T00:18:17.415Z,97455.34
2023-04-18T00:20:46.260Z,97455.59
2023-04-18T00:23:15.217Z,97450.19
2023-04-18T00:25:43.582Z,97462.03
2023-04-18T00:28:13.220Z,97448.31
2023-04-18T00:30:41.468Z,97451.59
2023-04-18T00:33:09.777Z,97452.81
2023-04-18T00:35:38.267Z,97453.22
2023-04-18T00:38:06.623Z,97440.47
2023-04-18T00:40:35.104Z,97446.69
2023-04-18T00:43:04.046Z,97439.59
2023-04-18T00:45:33.953Z,97433.28
2023-04-18T00:48:02.903Z,97438.28
2023-04-18T00:50:32.043Z,97434.81
2023-04-18T00:53:00.376Z,97445.59
2023-04-18T00:55:28.627Z,97431.72
2023-04-18T00:57:57.278Z,97429.59
2023-04-18T01:00:26.395Z,97424.41
2023-04-18T01:02:56.786Z,97439.06
2023-04-18T01:05:26.082Z,97428.19
2023-04-18T01:07:58.812Z,97423.53
2023-04-18T01:10:27.955Z,97435.19
2023-04-18T01:13:11.927Z,97425.47
2023-04-18T01:15:42.385Z,97419.41
2023-04-18T01:18:13.407Z,97425.25
2023-04-18T01:20:46.125Z,97432.06
2023-04-18T01:23:15.201Z,97428.47
2023-04-18T01:25:45.812Z,97416.75
2023-04-18T01:28:16.035Z,97424.59
2023-04-18T01:30:44.443Z,97421.19
2023-04-18T01:33:12.971Z,97411.72
2023-04-18T01:35:41.509Z,97423.16
2023-04-18T01:38:09.864Z,97427.50
2023-04-18T01:40:38.277Z,97408.59
2023-04-18T01:43:08.061Z,97412.09
2023-04-18T01:45:39.245Z,97418.63
2023-04-18T01:48:07.863Z,97406.16
2023-04-18T01:50:36.104Z,97415.41
2023-04-18T01:53:04.478Z,97420.13
2023-04-18T01:55:32.713Z,97419.47
2023-04-18T01:58:01.130Z,97414.66
2023-04-18T02:00:31.196Z,97418.47
2023-04-18T02:03:00.081Z,97416.66
2023-04-18T02:05:28.751Z,97412.97
2023-04-18T02:07:57.162Z,97423.16
2023-04-18T02:10:26.004Z,97417.78
2023-04-18T02:12:54.312Z,97418.34
2023-04-18T02:15:24.870Z,97409.75
2023-04-18T02:17:55.500Z,97406.25
2023-04-18T02:20:26.379Z,97420.91
2023-04-18T02:22:55.264Z,97416.19
2023-04-18T02:25:35.946Z,97408.06
2023-04-18T02:28:04.700Z,97423.16
2023-04-18T02:30:32.992Z,97418.06
2023-04-18T02:33:05.506Z,97421.56
2023-04-18T02:35:34.131Z,97431.09
2023-04-18T02:38:02.813Z,97434.88
2023-04-18T02:40:31.687Z,97429.97
2023-04-18T02:43:02.256Z,97418.69
2023-04-18T02:45:30.916Z,97433.72
2023-04-18T02:48:01.685Z,97436.19
2023-04-18T02:50:32.294Z,97430.31
2023-04-18T02:53:00.923Z,97434.00
2023-04-18T02:55:39.952Z,97440.22
2023-04-18T02:58:08.292Z,97436.09
2023-04-18T03:01:02.978Z,97435.47
2023-04-18T03:03:48.062Z,97454.06
2023-04-18T03:06:40.699Z,97442.84
2023-04-18T03:09:09.591Z,97443.50
2023-04-18T03:11:42.761Z,97440.97
2023-04-18T03:14:11.641Z,97442.53
2023-04-18T03:16:52.335Z,97445.25
2023-04-18T03:19:24.859Z,97433.81
2023-04-18T03:21:56.998Z,97450.88
2023-04-18T03:24:25.245Z,97449.38
2023-04-18T03:26:57.165Z,97442.56
2023-04-18T03:29:27.193Z,97440.03
2023-04-18T03:31:55.499Z,97444.25
2023-04-18T03:34:23.962Z,97442.81
2023-04-18T03:36:52.826Z,97425.44
2023-04-18T03:39:22.458Z,97441.13
2023-04-18T03:41:52.315Z,97426.72
2023-04-18T03:44:21.161Z,97435.41
2023-04-18T03:46:49.512Z,97425.06
2023-04-18T03:49:18.074Z,97433.56
2023-04-18T03:51:48.608Z,97433.72
2023-04-18T03:54:18.164Z,97434.75
2023-04-18T03:56:48.317Z,97431.44
2023-04-18T03:59:17.390Z,97454.69
2023-04-18T04:01:49.970Z,97447.19
2023-04-18T04:04:20.174Z,97448.72
2023-04-18T04:06:48.941Z,97452.81
2023-04-18T04:09:18.401Z,97460.13
2023-04-18T04:11:48.463Z,97468.69
2023-04-18T04:14:18.533Z,97467.97
2023-04-18T04:16:48.491Z,97468.84
2023-04-18T04:19:18.853Z,97462.53
2023-04-18T04:21:55.962Z,97468.56
2023-04-18T04:24:24.443Z,97462.25
2023-04-18T04:26:54.688Z,97468.31
2023-04-18T04:29:26.508Z,97476.25
2023-04-18T04:31:54.944Z,97461.25
2023-04-18T04:34:31.287Z,97473.34
2023-04-18T04:37:01.561Z,97472.56
2023-04-18T04:39:36.093Z,97477.59
2023-04-18T04:42:25.771Z,97487.03
2023-04-18T04:45:06.114Z,97469.84
2023-04-18T04:47:34.869Z,97478.94
2023-04-18T04:50:04.236Z,97474.44
2023-04-18T04:52:33.933Z,97476.81
2023-04-18T04:55:02.645Z,97470.75
2023-04-18T04:57:32.801Z,97473.88
2023-04-18T05:00:02.707Z,97483.44
2023-04-18T05:02:31.508Z,97483.56
2023-04-18T05:04:59.964Z,97483.75
2023-04-18T05:07:28.527Z,97488.25
2023-04-18T05:09:56.933Z,97487.88
2023-04-18T05:12:25.429Z,97485.69
2023-04-18T05:14:55.345Z,97489.13
2023-04-18T05:17:23.687Z,97481.59
2023-04-18T05:19:52.103Z,97483.47
2023-04-18T05:22:20.632Z,97481.22
2023-04-18T05:24:49.157Z,97498.34
2023-04-18T05:27:18.204Z,97498.03
2023-04-18T05:29:47.935Z,97475.75
2023-04-18T05:32:21.896Z,97483.31
2023-04-18T05:34:51.264Z,97491.25
2023-04-18T05:37:20.004Z,97496.38
2023-04-18T05:39:48.509Z,97494.78
2023-04-18T05:42:16.933Z,97486.19
2023-04-18T05:44:45.300Z,97492.59
2023-04-18T05:47:13.998Z,97488.06
2023-04-18T05:49:43.885Z,97496.91
2023-04-18T05:52:12.727Z,97500.22
2023-04-18T05:54:41.383Z,97482.00
2023-04-18T05:57:09.866Z,97496.66
2023-04-18T05:59:38.336Z,97503.63
2023-04-18T06:02:13.547Z,97495.91
2023-04-18T06:04:44.313Z,97485.13
2023-04-18T06:07:13.417Z,97488.44
2023-04-18T06:09:42.067Z,97499.94
2023-04-18T06:12:10.675Z,97497.34
2023-04-18T06:14:39.330Z,97493.50
2023-04-18T06:17:12.263Z,97498.16
2023-04-18T06:19:41.206Z,97503.97
2023-04-18T06:22:11.013Z,97501.28
2023-04-18T06:24:39.663Z,97490.19
2023-04-18T06:27:12.749Z,97488.53
2023-04-18T06:29:52.070Z,97504.25
2023-04-18T06:32:20.509Z,97505.16
2023-04-18T06:34:49.297Z,97507.25
2023-04-18T06:37:19.399Z,97501.53
2023-04-18T06:39:48.002Z,97508.09
2023-04-18T06:42:16.673Z,97508.63
2023-04-18T06:44:49.564Z,97500.81
2023-04-18T06:47:18.466Z,97507.25
2023-04-18T06:49:48.379Z,97511.03
2023-04-18T06:52:18.543Z,97507.47
2023-04-18T06:54:49.761Z,97519.75
2023-04-18T06:57:18.378Z,97524.72
2023-04-18T06:59:46.920Z,97516.84
2023-04-18T07:02:15.761Z,97514.28
2023-04-18T07:04:44.604Z,97511.59
2023-04-18T07:07:13.426Z,97518.97
2023-04-18T07:09:43.555Z,97517.81
2023-04-18T07:12:12.165Z,97516.31
2023-04-18T07:14:40.393Z,97509.75
2023-04-18T07:17:09.066Z,97516.00
2023-04-18T07:19:37.878Z,97509.50
2023-04-18T07:22:06.930Z,97506.75
2023-04-18T07:24:35.558Z,97511.47
2023-04-18T07:27:05.920Z,97518.78
2023-04-18T07:29:34.637Z,97504.22
2023-04-18T07:32:04.475Z,97511.81
2023-04-18T07:34:35.955Z,97504.66
2023-04-18T07:37:04.838Z,97509.53
2023-04-18T07:39:36.390Z,97521.41
2023-04-18T07:42:07.012Z,97515.13
2023-04-18T07:44:37.227Z,97517.16
2023-04-18T07:47:11.541Z,97518.25
2023-04-18T07:49:40.770Z,97519.69
2023-04-18T07:52:09.255Z,97519.84
2023-04-18T07:54:42.108Z,97513.22
2023-04-18T07:57:12.934Z,97522.78
2023-04-18T07:59:41.640Z,97520.69
2023-04-18T08:02:10.796Z,97518.88
2023-04-18T08:04:39.956Z,97530.41
2023-04-18T08:07:09.054Z,97524.75
2023-04-18T08:09:37.633Z,97515.19
2023-04-18T08:12:06.889Z,97534.13
2023-04-18T08:14:39.468Z,97535.56
2023-04-18T08:17:08.298Z,97533.09
2023-04-18T08:19:39.194Z,97541.06
2023-04-18T08:22:13.000Z,97534.13
2023-04-18T08:24:57.228Z,97541.75
2023-04-18T08:27:31.586Z,97535.03
2023-04-18T08:30:04.172Z,97532.03
2023-04-18T08:32:33.764Z,97545.16
2023-04-18T08:35:04.150Z,97549.41
2023-04-18T08:37:35.493Z,97544.94
2023-04-18T08:40:05.077Z,97539.88
2023-04-18T08:42:33.928Z,97555.66
2023-04-18T08:45:04.466Z,97561.41
2023-04-18T08:47:36.218Z,97562.16
2023-04-18T08:50:05.469Z,97552.59
2023-04-18T08:52:39.118Z,97561.56
2023-04-18T08:55:11.472Z,97560.97
2023-04-18T08:57:39.982Z,97557.94
2023-04-18T09:00:11.994Z,97565.44
2023-04-18T09:02:43.936Z,97560.00
2023-04-18T09:05:14.661Z,97566.19
2023-04-18T09:07:44.080Z,97571.25
2023-04-18T09:10:14.162Z,97570.78
2023-04-18T09:12:44.943Z,97572.25
2023-04-18T09:15:16.953Z,97570.28
2023-04-18T09:17:51.172Z,97582.16
2023-04-18T09:20:36.019Z,97575.44
2023-04-18T09:23:06.031Z,97579.75
2023-04-18T09:25:40.746Z,97565.78
2023-04-18T09:28:24.094Z,97574.47
2023-04-18T09:30:55.274Z,97565.22
2023-04-18T09:33:31.595Z,97580.53
2023-04-18T09:36:18.394Z,97580.59
2023-04-18T09:38:47.106Z,97563.22
2023-04-18T09:41:19.879Z,97571.97
2023-04-18T09:43:52.518Z,97582.34
2023-04-18T09:46:22.870Z,97578.75
2023-04-18T09:48:52.144Z,97575.81
2023-04-18T09:51:21.176Z,97561.28
2023-04-18T09:53:50.611Z,97579.78
2023-04-18T09:56:26.721Z,97568.03
2023-04-18T09:59:04.680Z,97573.16
2023-04-18T10:01:36.123Z,97570.03
2023-04-18T10:04:07.017Z,97577.41
2023-04-18T10:06:40.091Z,97553.00
2023-04-18T10:09:11.140Z,97568.97
2023-04-18T10:11:40.715Z,97577.19
2023-04-18T10:14:13.350Z,97577.13
2023-04-18T10:16:49.948Z,97571.91
2023-04-18T10:19:24.509Z,97577.28
2023-04-18T10:21:57.313Z,97574.06
2023-04-18T10:24:53.574Z,97573.63
2023-04-18T10:27:57.718Z,97571.53
2023-04-18T10:30:56.095Z,97573.66
2023-04-18T10:33:35.000Z,97569.22
2023-04-18T10:36:06.633Z,97570.69
2023-04-18T10:38:36.208Z,97561.97
2023-04-18T10:41:18.708Z,97572.06
2023-04-18T10:44:13.447Z,97567.69
2023-04-18T10:46:43.930Z,97558.31
2023-04-18T10:49:27.417Z,97567.59
2023-04-18T10:51:58.784Z,97562.44
2023-04-18T10:54:32.271Z,97563.34
2023-04-18T10:57:03.683Z,97560.50
2023-04-18T10:59:34.721Z,97564.22
2023-04-18T11:02:11.717Z,97555.84
2023-04-18T11:04:42.861Z,97552.41
2023-04-18T11:07:11.392Z,97573.91
2023-04-18T11:09:43.423Z,97561.41
2023-04-18T11:12:13.753Z,97559.44
2023-04-18T11:14:42.866Z,97563.69
2023-04-18T11:17:19.146Z,97556.97
2023-04-18T11:19:49.230Z,97558.16
2023-04-18T11:22:18.314Z,97567.81
2023-04-18T11:24:47.213Z,97543.78
2023-04-18T11:27:16.331Z,97544.59
2023-04-18T11:29:44.948Z,97554.88
2023-04-18T11:32:13.711Z,97556.06
2023-04-18T11:34:42.403Z,97550.25
2023-04-18T11:37:12.816Z,97551.75
2023-04-18T11:39:44.192Z,97562.75
2023-04-18T11:42:12.922Z,97546.06
2023-04-18T11:44:47.514Z,97559.53
2023-04-18T11:47:29.786Z,97557.69
2023-04-18T11:49:59.783Z,97556.91
2023-04-18T11:52:35.040Z,97558.75
2023-04-18T11:55:14.128Z,97553.50
2023-04-18T11:57:43.493Z,97553.28
2023-04-18T12:00:14.002Z,97549.84
2023-04-18T12:02:44.298Z,97541.75
2023-04-18T12:05:27.427Z,97554.66
2023-04-18T12:07:58.558Z,97544.34
2023-04-18T12:10:29.987Z,97543.50
2023-04-18T12:13:00.176Z,97552.72
2023-04-18T12:15:39.935Z,97549.31
2023-04-18T12:18:09.652Z,97544.59
2023-04-18T12:20:46.776Z,97565.03
2023-04-18T12:26:19.424Z,97563.66
2023-04-18T12:28:51.368Z,97558.59
2023-04-18T12:31:23.764Z,97547.13
2023-04-18T12:33:53.036Z,97549.66
2023-04-18T12:36:23.885Z,97568.56
2023-04-18T12:38:53.072Z,97562.44
2023-04-18T12:41:23.845Z,97560.44
2023-04-18T12:43:53.202Z,97552.84
2023-04-18T12:46:22.183Z,97564.41
2023-04-18T12:48:51.268Z,97560.53
2023-04-18T12:51:23.124Z,97562.88
2023-04-18T12:53:54.158Z,97550.22
2023-04-18T12:56:28.014Z,97558.91
2023-04-18T12:58:57.822Z,97549.66
2023-04-18T13:01:30.924Z,97554.97
2023-04-18T13:04:10.830Z,97561.72
2023-04-18T13:06:44.776Z,97554.94
2023-04-18T13:09:13.842Z,97555.22
2023-04-18T13:11:44.983Z,97562.66
2023-04-18T13:14:13.758Z,97559.56
2023-04-18T13:16:46.705Z,97555.06
2023-04-18T13:19:15.389Z,97557.16
2023-04-18T13:21:49.496Z,97547.81
2023-04-18T13:24:18.477Z,97551.19
2023-04-18T13:26:48.814Z,97542.16
2023-04-18T13:29:17.361Z,97557.84
2023-04-18T13:31:46.274Z,97554.03
2023-04-18T13:34:14.998Z,97558.59
2023-04-18T13:36:45.468Z,97565.78
2023-04-18T13:39:15.419Z,97555.28
2023-04-18T13:41:44.426Z,97555.91
2023-04-18T13:44:14.928Z,97553.84
2023-04-18T13:46:43.833Z,97556.00
2023-04-18T13:49:12.647Z,97552.63
2023-04-18T13:51:44.392Z,97558.81
2023-04-18T13:54:15.130Z,97554.22
2023-04-18T13:56:49.547Z,97547.44
2023-04-18T13:59:21.031Z,97562.56
2023-04-18T14:01:58.746Z,97564.28
2023-04-18T14:04:37.091Z,97568.63
2023-04-18T14:07:11.420Z,97573.91
2023-04-18T14:09:46.620Z,97584.56
2023-04-18T14:12:17.118Z,97582.41
2023-04-18T14:15:08.509Z,97573.41
2023-04-18T14:18:06.080Z,97586.78
2023-04-18T14:21:02.646Z,97578.31
2023-04-18T14:23:48.377Z,97591.66
2023-04-18T14:26:18.922Z,97588.25
2023-04-18T14:28:49.505Z,97586.19
2023-04-18T14:31:28.547Z,97587.38
2023-04-18T14:33:58.826Z,97592.00
2023-04-18T14:36:45.580Z,97593.81
2023-04-18T14:39:15.637Z,97592.81
2023-04-18T14:41:46.230Z,97595.97
2023-04-18T14:44:20.912Z,97607.47
2023-04-18T14:46:52.317Z,97600.84
2023-04-18T14:49:24.055Z,97613.03
2023-04-18T14:51:54.095Z,97613.31
2023-04-18T14:54:26.046Z,97620.75
2023-04-18T14:57:00.129Z,97601.03
2023-04-18T14:59:29.174Z,97625.50
2023-04-18T15:02:00.646Z,97620.91
2023-04-18T15:04:32.303Z,97614.56
2023-04-18T15:07:02.399Z,97610.47
2023-04-18T15:09:31.795Z,97625.22
2023-04-18T15:12:00.278Z,97615.38
2023-04-18T15:14:32.302Z,97629.56
2023-04-18T15:17:09.429Z,97622.81
2023-04-18T15:19:39.813Z,97612.72
2023-04-18T15:22:11.857Z,97630.69
2023-04-18T15:24:52.987Z,97633.22
2023-04-18T15:27:46.202Z,97623.78
2023-04-18T15:30:17.957Z,97631.81
2023-04-18T15:32:54.230Z,97620.66
2023-04-18T15:35:23.816Z,97638.50
2023-04-18T15:37:54.240Z,97642.47
2023-04-18T15:40:23.598Z,97639.53
2023-04-18T15:42:54.943Z,97635.38
2023-04-18T15:45:31.474Z,97641.16
2023-04-18T15:48:11.833Z,97643.34
2023-04-18T15:50:44.882Z,97648.34
2023-04-18T15:53:16.175Z,97646.56
2023-04-18T15:55:47.334Z,97640.63
2023-04-18T15:58:16.592Z,97648.59
2023-04-18T16:00:45.956Z,97648.94
2023-04-18T16:03:19.410Z,97655.28
2023-04-18T16:05:48.969Z,97656.28
2023-04-18T16:08:18.122Z,97648.31
2023-04-18T16:10:47.007Z,97649.81
2023-04-18T16:13:16.633Z,97660.25
2023-04-18T16:15:46.069Z,97658.94
2023-04-18T16:18:18.530Z,97661.06
2023-04-18T16:20:47.283Z,97673.94
2023-04-18T16:23:16.636Z,97653.44
2023-04-18T16:25:46.882Z,97668.84
2023-04-18T16:28:16.343Z,97665.53
2023-04-18T16:30:46.248Z,97668.72
2023-04-18T16:33:18.934Z,97661.50
2023-04-18T16:35:47.780Z,97665.13
2023-04-18T16:38:17.168Z,97663.53
2023-04-18T16:40:46.068Z,97659.47
2023-04-18T16:43:14.684Z,97672.34
2023-04-18T16:45:43.443Z,97655.78
2023-04-18T16:48:13.034Z,97668.63
2023-04-18T16:50:46.007Z,97658.97
2023-04-18T16:53:14.456Z,97674.25
2023-04-18T16:55:43.326Z,97676.41
2023-04-18T16:58:12.181Z,97676.81
2023-04-18T17:00:41.203Z,97680.88
2023-04-18T17:03:10.477Z,97674.88
2023-04-18T17:05:39.840Z,97674.88
2023-04-18T17:08:10.739Z,97682.75
2023-04-18T17:10:39.769Z,97679.75
2023-04-18T17:13:08.370Z,97686.97
2023-04-18T17:15:38.686Z,97694.75
2023-04-18T17:18:07.742Z,97697.63
2023-04-18T17:20:37.116Z,97690.56
2023-04-18T17:23:06.146Z,97700.16
2023-04-18T17:25:37.318Z,97704.09
2023-04-18T17:28:06.730Z,97704.53
2023-04-18T17:30:36.098Z,97718.09
2023-04-18T17:33:06.078Z,97713.72
2023-04-18T17:35:35.451Z,97710.19
2023-04-18T17:38:05.038Z,97722.63
2023-04-18T17:40:36.182Z,97715.91
2023-04-18T17:43:06.276Z,97729.94
2023-04-18T17:45:36.198Z,97724.38
2023-04-18T17:48:06.649Z,97738.31
2023-04-18T17:50:39.393Z,97734.66
2023-04-18T17:53:23.829Z,97733.75
2023-04-18T17:55:59.355Z,97750.75
2023-04-18T17:58:37.227Z,97742.81
2023-04-18T18:01:18.579Z,97742.34
2023-04-18T18:03:49.169Z,97728.84
2023-04-18T18:09:02.984Z,97733.88
2023-04-18T18:11:39.060Z,97738.25
2023-04-18T18:14:08.390Z,97737.19
2023-04-18T18:16:40.852Z,97745.44
2023-04-18T18:19:13.259Z,97751.19
2023-04-18T18:21:48.372Z,97759.06
2023-04-18T18:24:19.856Z,97761.59
2023-04-18T18:26:52.220Z,97760.78
2023-04-18T18:29:23.176Z,97757.81
2023-04-18T18:31:54.783Z,97765.38
2023-04-18T18:34:24.453Z,97769.91
2023-04-18T18:36:54.196Z,97778.31
2023-04-18T18:39:25.173Z,97776.31
2023-04-18T18:41:56.955Z,97776.31
2023-04-18T18:44:28.028Z,97771.09
2023-04-18T18:46:58.369Z,97767.75
2023-04-18T18:49:29.290Z,97768.97
2023-04-18T18:51:59.112Z,97767.91
2023-04-18T18:54:28.839Z,97776.44
2023-04-18T18:57:00.128Z,97782.50
2023-04-18T18:59:29.955Z,97772.19
2023-04-18T19:02:00.385Z,97784.91
2023-04-18T19:04:31.263Z,97778.84
2023-04-18T19:07:00.621Z,97770.56
2023-04-18T19:09:29.740Z,97781.31
2023-04-18T19:12:02.305Z,97779.69
2023-04-18T19:14:42.357Z,97786.19
2023-04-18T19:17:12.214Z,97766.56
2023-04-18T19:19:43.871Z,97778.50
2023-04-18T19:22:13.825Z,97776.44
2023-04-18T19:24:43.932Z,97766.28
2023-04-18T19:27:16.379Z,97765.44
2023-04-18T19:29:47.364Z,97782.25
2023-04-18T19:32:16.603Z,97788.69
2023-04-18T19:34:53.218Z,97784.78
2023-04-18T19:37:26.540Z,97779.28
2023-04-18T19:39:59.449Z,97773.31
2023-04-18T19:42:32.338Z,97771.00
2023-04-18T19:45:02.957Z,97773.44
2023-04-18T19:47:35.069Z,97773.97
2023-04-18T19:50:05.844Z,97780.91
2023-04-18T19:52:36.214Z,97776.53
2023-04-18T19:55:08.144Z,97784.03
2023-04-18T19:57:43.169Z,97771.94
2023-04-18T20:00:15.902Z,97772.78
2023-04-18T20:02:46.831Z,97776.22
2023-04-18T20:05:18.563Z,97791.09
2023-04-18T20:07:49.223Z,97790.84
2023-04-18T20:10:22.589Z,97783.56
2023-04-18T20:12:56.151Z,97785.19
2023-04-18T20:15:25.992Z,97783.56
2023-04-18T20:17:55.556Z,97786.78
2023-04-18T20:20:25.756Z,97784.75
2023-04-18T20:22:55.728Z,97777.72
2023-04-18T20:25:25.745Z,97781.31
2023-04-18T20:27:56.630Z,97782.88
2023-04-18T20:30:25.956Z,97777.38
2023-04-18T20:32:56.061Z,97772.75
2023-04-18T20:35:25.206Z,97776.06
2023-04-18T20:37:55.503Z,97782.16
2023-04-18T20:40:26.442Z,97773.19
2023-04-18T20:42:59.237Z,97760.47
2023-04-18T20:45:28.923Z,97757.88
2023-04-18T20:47:58.424Z,97764.03
2023-04-18T20:50:28.046Z,97774.44
2023-04-18T20:52:56.910Z,97763.56
2023-04-18T20:55:25.911Z,97764.53
2023-04-18T20:57:56.496Z,97767.97
2023-04-18T21:00:26.950Z,97773.81
2023-04-18T21:02:55.831Z,97764.53
2023-04-18T21:05:25.210Z,97746.94
2023-04-18T21:07:53.962Z,97758.00
2023-04-18T21:10:22.491Z,97757.00
2023-04-18T21:12:50.881Z,97760.41
2023-04-18T21:15:19.742Z,97757.00
2023-04-18T21:17:51.207Z,97748.75
2023-04-18T21:20:20.934Z,97750.47
2023-04-18T21:22:49.552Z,97755.41
2023-04-18T21:25:18.896Z,97745.25
2023-04-18T21:27:47.608Z,97757.97
2023-04-18T21:30:16.071Z,97749.59
2023-04-18T21:32:44.800Z,97749.25
2023-04-18T21:35:16.496Z,97749.25
2023-04-18T21:37:47.246Z,97750.94
2023-04-18T21:40:16.185Z,97742.25
2023-04-18T21:42:44.692Z,97753.16
2023-04-18T21:45:15.091Z,97749.56
2023-04-18T21:47:43.835Z,97750.03
2023-04-18T21:50:13.154Z,97747.97
2023-04-18T21:52:44.810Z,97750.97
2023-04-18T21:55:14.608Z,97758.94
2023-04-18T21:57:44.389Z,97765.16
2023-04-18T22:00:14.070Z,97764.34
2023-04-18T22:02:42.580Z,97777.47
2023-04-18T22:05:13.047Z,97768.88
2023-04-18T22:07:54.998Z,97771.44
2023-04-18T22:10:26.616Z,97761.09
2023-04-18T22:12:56.236Z,97761.19
2023-04-18T22:15:27.225Z,97763.00
2023-04-18T22:17:56.206Z,97758.16
2023-04-18T22:20:25.736Z,97768.19
2023-04-18T22:22:55.896Z,97759.84
2023-04-18T22:25:24.957Z,97761.75
2023-04-18T22:27:53.486Z,97765.16
2023-04-18T22:30:22.152Z,97756.44
2023-04-18T22:32:50.877Z,97752.72
2023-04-18T22:35:19.764Z,97758.88
2023-04-18T22:37:48.129Z,97760.19
2023-04-18T22:40:18.249Z,97752.75
2023-04-18T22:42:46.912Z,97771.13
2023-04-18T22:45:15.664Z,97761.84
2023-04-18T22:47:44.101Z,97770.63
2023-04-18T22:50:13.459Z,97765.06
2023-04-18T22:52:41.751Z,97765.25
2023-04-18T22:55:11.048Z,97754.84
2023-04-18T22:57:41.519Z,97763.63
2023-04-18T23:00:11.415Z,97772.50
2023-04-18T23:02:40.051Z,97756.91
2023-04-18T23:05:10.971Z,97770.88
2023-04-18T23:07:39.304Z,97784.13
2023-04-18T23:10:09.104Z,97771.44
2023-04-18T23:12:37.631Z,97782.53
2023-04-18T23:15:09.027Z,97777.31
2023-04-18T23:17:37.668Z,97772.31
2023-04-18T23:20:07.848Z,97771.25
2023-04-18T23:22:36.257Z,97770.50
2023-04-18T23:25:04.951Z,97775.97
2023-04-18T23:27:33.773Z,97760.41
2023-04-18T23:30:02.127Z,97752.63
2023-04-18T23:32:32.346Z,97756.91
2023-04-18T23:35:04.637Z,97762.19
2023-04-18T23:37:33.281Z,97756.03
2023-04-18T23:40:02.053Z,97758.59
2023-04-18T23:42:30.269Z,97757.75
2023-04-18T23:44:59.088Z,97755.97
2023-04-18T23:47:27.592Z,97747.16
2023-04-18T23:49:57.595Z,97735.03
2023-04-18T23:52:26.087Z,97728.88
2023-04-18T23:54:54.687Z,97732.97
2023-04-18T23:57:23.762Z,97718.28
2023-04-18T23:59:52.445Z,97726.91
